createdAt,value
2022-08-26T00:00:21.418Z,79.83
2022-08-26T00:02:49.697Z,79.84
2022-08-26T00:05:18.281Z,79.98
2022-08-26T00:07:47.447Z,79.99
2022-08-26T00:10:15.989Z,80.01
2022-08-26T00:12:44.398Z,80.07
2022-08-26T00:15:16.837Z,80.34
2022-08-26T00:17:47.560Z,80.24
2022-08-26T00:20:20.423Z,80.38
2022-08-26T00:22:48.525Z,80.37
2022-08-26T00:25:18.005Z,80.42
2022-08-26T00:27:47.332Z,80.36
2022-08-26T00:30:24.150Z,80.42
2022-08-26T00:32:57.302Z,80.52
2022-08-26T00:35:28.077Z,80.63
2022-08-26T00:37:57.429Z,80.88
2022-08-26T00:40:33.640Z,80.78
2022-08-26T00:43:02.677Z,80.94
2022-08-26T00:45:44.444Z,81.08
2022-08-26T00:48:17.329Z,81.06
2022-08-26T00:50:54.072Z,81.21
2022-08-26T00:53:27.809Z,81.32
2022-08-26T00:56:02.740Z,81.05
2022-08-26T00:58:35.101Z,81.18
2022-08-26T01:01:03.366Z,81.03
2022-08-26T01:03:35.785Z,81.15
2022-08-26T01:06:05.323Z,81.07
2022-08-26T01:08:41.615Z,81.23
2022-08-26T01:11:10.797Z,81.33
2022-08-26T01:13:40.555Z,81.38
2022-08-26T01:16:15.949Z,81.54
2022-08-26T01:18:46.847Z,81.55
2022-08-26T01:21:27.251Z,81.60
2022-08-26T01:23:58.933Z,81.63
2022-08-26T01:26:32.859Z,81.66
2022-08-26T01:29:03.933Z,81.89
2022-08-26T01:31:41.724Z,81.69
2022-08-26T01:34:17.386Z,81.84
2022-08-26T01:36:50.725Z,82.16
2022-08-26T01:39:21.449Z,82.08
2022-08-26T01:41:54.392Z,82.38
2022-08-26T01:44:27.938Z,82.04
2022-08-26T01:46:58.381Z,82.23
2022-08-26T01:49:27.731Z,82.22
2022-08-26T01:51:58.217Z,82.33
2022-08-26T01:54:27.982Z,82.51
2022-08-26T01:56:56.403Z,82.66
2022-08-26T01:59:26.426Z,82.46
2022-08-26T02:01:55.059Z,82.55
2022-08-26T02:04:28.635Z,82.37
2022-08-26T02:06:58.252Z,82.72
2022-08-26T02:09:29.231Z,82.64
2022-08-26T02:12:01.835Z,82.65
2022-08-26T02:14:34.976Z,82.53
2022-08-26T02:17:13.037Z,82.73
2022-08-26T02:19:47.059Z,82.61
2022-08-26T02:22:21.717Z,82.73
2022-08-26T02:24:54.411Z,82.75
2022-08-26T02:27:26.457Z,82.94
2022-08-26T02:30:01.373Z,82.84
2022-08-26T02:32:29.797Z,82.74
2022-08-26T02:34:58.207Z,83.01
2022-08-26T02:37:31.129Z,82.91
2022-08-26T02:40:01.086Z,82.96
2022-08-26T02:42:29.989Z,83.14
2022-08-26T02:44:58.273Z,83.26
2022-08-26T02:47:26.588Z,83.17
2022-08-26T02:49:57.587Z,83.13
2022-08-26T02:52:26.456Z,83.19
2022-08-26T02:54:56.533Z,83.47
2022-08-26T02:57:26.180Z,83.35
2022-08-26T02:59:54.631Z,83.30
2022-08-26T03:02:23.142Z,83.28
2022-08-26T03:04:57.787Z,83.41
2022-08-26T03:07:29.114Z,83.49
2022-08-26T03:09:58.218Z,83.38
2022-08-26T03:12:27.991Z,83.65
2022-08-26T03:14:56.327Z,83.56
2022-08-26T03:17:24.602Z,83.74
2022-08-26T03:19:57.367Z,83.53
2022-08-26T03:22:27.009Z,83.88
2022-08-26T03:24:55.922Z,83.82
2022-08-26T03:27:24.188Z,83.86
2022-08-26T03:30:11.793Z,83.75
2022-08-26T03:32:41.419Z,83.84
2022-08-26T03:35:10.765Z,83.84
2022-08-26T03:37:40.286Z,83.78
2022-08-26T03:40:11.781Z,83.88
2022-08-26T03:42:41.861Z,83.99
2022-08-26T03:45:17.492Z,83.83
2022-08-26T03:47:47.201Z,83.88
2022-08-26T03:50:22.879Z,83.89
2022-08-26T03:52:52.931Z,84.04
2022-08-26T03:55:23.889Z,84.13
2022-08-26T03:57:52.596Z,84.20
2022-08-26T04:00:22.691Z,84.20
2022-08-26T04:02:53.292Z,84.03
2022-08-26T04:05:23.000Z,84.32
2022-08-26T04:07:51.919Z,84.13
2022-08-26T04:10:29.303Z,84.21
2022-08-26T04:12:59.317Z,84.15
2022-08-26T04:15:29.446Z,84.19
2022-08-26T04:17:58.302Z,84.48
2022-08-26T04:20:27.203Z,84.41
2022-08-26T04:22:56.446Z,84.31
2022-08-26T04:25:25.416Z,84.39
2022-08-26T04:27:54.941Z,84.58
2022-08-26T04:30:23.554Z,84.57
2022-08-26T04:32:55.072Z,84.57
2022-08-26T04:35:25.971Z,84.64
2022-08-26T04:37:55.604Z,84.57
2022-08-26T04:40:24.542Z,84.80
2022-08-26T04:42:54.282Z,84.60
2022-08-26T04:45:23.022Z,84.62
2022-08-26T04:47:56.704Z,84.57
2022-08-26T04:50:27.019Z,84.70
2022-08-26T04:52:56.380Z,84.50
2022-08-26T04:55:38.680Z,84.66
2022-08-26T04:58:12.134Z,84.57
2022-08-26T05:00:40.383Z,84.71
2022-08-26T05:03:10.716Z,84.43
2022-08-26T05:05:41.243Z,84.43
2022-08-26T05:08:11.319Z,84.26
2022-08-26T05:10:45.152Z,84.38
2022-08-26T05:13:15.713Z,84.34
2022-08-26T05:15:45.885Z,84.24
2022-08-26T05:18:21.203Z,84.26
2022-08-26T05:20:54.754Z,84.40
2022-08-26T05:23:24.534Z,84.31
2022-08-26T05:25:59.278Z,84.19
2022-08-26T05:28:30.773Z,84.23
2022-08-26T05:30:59.117Z,84.22
2022-08-26T05:33:29.469Z,84.38
2022-08-26T05:35:57.713Z,84.22
2022-08-26T05:38:26.020Z,84.33
2022-08-26T05:40:58.653Z,84.20
2022-08-26T05:43:27.804Z,84.19
2022-08-26T05:45:56.254Z,84.25
2022-08-26T05:48:25.077Z,84.17
2022-08-26T05:50:55.019Z,84.06
2022-08-26T05:53:26.242Z,84.22
2022-08-26T05:55:58.131Z,84.16
2022-08-26T05:58:27.615Z,84.13
2022-08-26T06:01:03.416Z,84.11
2022-08-26T06:03:34.395Z,84.19
2022-08-26T06:06:06.702Z,84.18
2022-08-26T06:08:35.716Z,84.27
2022-08-26T06:11:07.479Z,84.05
2022-08-26T06:13:41.802Z,84.06
2022-08-26T06:16:13.176Z,84.03
2022-08-26T06:18:44.921Z,83.96
2022-08-26T06:21:18.898Z,83.85
2022-08-26T06:24:07.590Z,83.89
2022-08-26T06:26:38.055Z,83.60
2022-08-26T06:31:36.070Z,83.34
2022-08-26T06:34:10.384Z,83.37
2022-08-26T06:36:44.763Z,83.20
2022-08-26T06:39:17.774Z,83.13
2022-08-26T06:41:46.931Z,83.25
2022-08-26T06:44:16.950Z,83.06
2022-08-26T06:46:45.703Z,82.99
2022-08-26T06:49:14.232Z,83.01
2022-08-26T06:51:47.006Z,82.98
2022-08-26T06:54:17.347Z,82.83
2022-08-26T06:56:45.724Z,83.04
2022-08-26T06:59:16.445Z,82.87
2022-08-26T07:01:46.420Z,82.69
2022-08-26T07:04:21.872Z,82.81
2022-08-26T07:06:53.975Z,82.44
2022-08-26T07:09:24.055Z,82.28
2022-08-26T07:11:55.423Z,81.82
2022-08-26T07:14:25.280Z,81.38
2022-08-26T07:16:55.567Z,80.76
2022-08-26T07:19:29.770Z,80.51
2022-08-26T07:22:03.237Z,79.98
2022-08-26T07:24:32.812Z,79.43
2022-08-26T07:27:02.948Z,79.12
2022-08-26T07:29:34.380Z,79.28
2022-08-26T07:32:02.998Z,79.41
2022-08-26T07:34:32.112Z,79.47
2022-08-26T07:37:02.820Z,79.48
2022-08-26T07:39:32.825Z,79.32
2022-08-26T07:42:03.825Z,79.36
2022-08-26T07:44:36.708Z,79.17
2022-08-26T07:47:19.345Z,78.98
2022-08-26T07:49:54.866Z,78.64
2022-08-26T07:52:26.918Z,78.58
2022-08-26T07:54:56.616Z,77.90
2022-08-26T07:57:25.119Z,77.55
2022-08-26T07:59:55.067Z,77.05
2022-08-26T08:02:25.310Z,76.84
2022-08-26T08:04:54.510Z,76.73
2022-08-26T08:07:38.594Z,76.14
2022-08-26T08:10:16.211Z,75.55
2022-08-26T08:12:44.953Z,75.41
2022-08-26T08:15:14.535Z,75.29
2022-08-26T08:17:43.932Z,75.36
2022-08-26T08:20:15.049Z,74.76
2022-08-26T08:22:45.083Z,74.79
2022-08-26T08:25:14.756Z,74.15
2022-08-26T08:27:45.689Z,73.80
2022-08-26T08:30:15.729Z,73.67
2022-08-26T08:32:51.202Z,73.29
2022-08-26T08:35:22.491Z,73.20
2022-08-26T08:37:54.784Z,73.60
2022-08-26T08:40:26.297Z,73.51
2022-08-26T08:43:03.783Z,73.34
2022-08-26T08:45:39.442Z,73.08
2022-08-26T08:48:15.236Z,72.92
2022-08-26T08:50:48.378Z,72.45
2022-08-26T08:53:26.453Z,72.13
2022-08-26T08:56:11.392Z,71.41
2022-08-26T08:58:56.927Z,71.71
2022-08-26T09:01:42.643Z,71.49
2022-08-26T09:04:30.863Z,70.94
2022-08-26T09:07:03.937Z,70.46
2022-08-26T09:09:42.076Z,70.00
2022-08-26T09:12:20.414Z,69.44
2022-08-26T09:15:03.936Z,69.23
2022-08-26T09:17:49.065Z,69.44
2022-08-26T09:20:31.010Z,69.59
2022-08-26T09:22:59.385Z,68.97
2022-08-26T09:25:29.368Z,69.07
2022-08-26T09:27:59.874Z,69.40
2022-08-26T09:30:33.023Z,69.30
2022-08-26T09:33:10.326Z,69.57
2022-08-26T09:35:43.468Z,69.35
2022-08-26T09:38:26.794Z,69.26
2022-08-26T09:41:01.196Z,68.37
2022-08-26T09:43:30.674Z,68.48
2022-08-26T09:46:16.725Z,67.82
2022-08-26T09:48:45.373Z,68.57
2022-08-26T09:51:32.598Z,68.36
2022-08-26T09:54:03.182Z,68.94
2022-08-26T09:56:37.826Z,69.01
2022-08-26T09:59:12.031Z,69.16
2022-08-26T10:01:44.782Z,69.14
2022-08-26T10:04:21.580Z,68.85
2022-08-26T10:06:59.738Z,68.83
2022-08-26T10:09:30.024Z,68.69
2022-08-26T10:12:05.357Z,69.00
2022-08-26T10:14:39.846Z,68.18
2022-08-26T10:17:17.417Z,68.33
2022-08-26T10:19:56.689Z,67.62
2022-08-26T10:22:35.578Z,67.71
2022-08-26T10:25:11.009Z,67.70
2022-08-26T10:27:53.464Z,67.69
2022-08-26T10:30:25.285Z,67.70
2022-08-26T10:33:01.704Z,67.29
2022-08-26T10:35:31.911Z,67.18
2022-08-26T10:38:09.095Z,67.46
2022-08-26T10:40:52.902Z,67.10
2022-08-26T10:43:27.185Z,67.02
2022-08-26T10:46:01.840Z,66.22
2022-08-26T10:48:42.706Z,66.07
2022-08-26T10:51:14.018Z,66.55
2022-08-26T10:53:51.374Z,66.25
2022-08-26T10:56:41.254Z,66.49
2022-08-26T10:59:21.997Z,66.02
2022-08-26T11:02:00.584Z,66.30
2022-08-26T11:04:52.212Z,65.94
2022-08-26T11:07:42.553Z,65.63
2022-08-26T11:11:04.173Z,65.29
2022-08-26T11:14:01.246Z,64.36
2022-08-26T11:16:42.878Z,64.05
2022-08-26T11:20:00.266Z,63.93
2022-08-26T11:22:32.881Z,63.58
2022-08-26T11:25:09.453Z,63.09
2022-08-26T11:28:05.252Z,63.10
2022-08-26T11:30:56.922Z,62.96
2022-08-26T11:33:59.530Z,62.58
2022-08-26T11:36:59.959Z,62.60
2022-08-26T11:39:38.647Z,62.50
2022-08-26T11:42:24.832Z,61.78
2022-08-26T11:44:58.099Z,61.91
2022-08-26T11:47:32.822Z,60.83
2022-08-26T11:50:16.422Z,60.92
2022-08-26T11:52:53.905Z,60.82
2022-08-26T11:55:23.454Z,60.80
2022-08-26T11:57:56.691Z,60.61
2022-08-26T12:00:33.313Z,60.84
2022-08-26T12:03:09.606Z,60.46
2022-08-26T12:05:46.003Z,60.36
2022-08-26T12:08:19.152Z,59.56
2022-08-26T12:10:48.289Z,59.39
2022-08-26T12:13:26.514Z,59.20
2022-08-26T12:15:57.936Z,59.08
2022-08-26T12:18:31.202Z,59.08
2022-08-26T12:21:16.005Z,58.75
2022-08-26T12:23:47.692Z,58.55
2022-08-26T12:26:26.478Z,57.95
2022-08-26T12:29:00.259Z,58.03
2022-08-26T12:31:34.253Z,58.44
2022-08-26T12:34:07.112Z,58.46
2022-08-26T12:36:50.795Z,58.86
2022-08-26T12:39:29.385Z,58.58
2022-08-26T12:41:59.864Z,58.86
2022-08-26T12:44:53.785Z,59.24
2022-08-26T12:47:43.015Z,59.62
2022-08-26T12:50:19.221Z,59.78
2022-08-26T12:53:01.268Z,60.56
2022-08-26T12:55:43.750Z,61.31
2022-08-26T12:58:22.656Z,61.71
2022-08-26T13:00:52.319Z,62.15
2022-08-26T13:03:43.889Z,62.31
2022-08-26T13:06:17.268Z,62.71
2022-08-26T13:08:48.360Z,63.26
2022-08-26T13:11:20.791Z,63.02
2022-08-26T13:13:51.756Z,63.76
2022-08-26T13:16:20.826Z,63.54
2022-08-26T13:18:50.166Z,63.98
2022-08-26T13:21:21.549Z,64.11
2022-08-26T13:23:53.521Z,64.28
2022-08-26T13:26:22.463Z,64.38
2022-08-26T13:29:01.882Z,64.90
2022-08-26T13:31:34.572Z,64.88
2022-08-26T13:34:03.781Z,65.51
2022-08-26T13:36:32.197Z,65.77
2022-08-26T13:39:02.005Z,66.61
2022-08-26T13:41:32.066Z,66.76
2022-08-26T13:44:00.973Z,67.12
2022-08-26T13:46:30.312Z,67.91
2022-08-26T13:48:59.619Z,68.01
2022-08-26T13:51:29.231Z,68.70
2022-08-26T13:53:58.514Z,68.94
2022-08-26T13:56:30.452Z,69.28
2022-08-26T13:59:00.122Z,69.35
2022-08-26T14:01:31.143Z,69.56
2022-08-26T14:03:59.712Z,69.85
2022-08-26T14:06:28.178Z,69.77
2022-08-26T14:08:56.681Z,70.13
2022-08-26T14:11:25.438Z,70.09
2022-08-26T14:13:55.108Z,70.34
2022-08-26T14:16:28.221Z,70.27
2022-08-26T14:18:56.652Z,70.57
2022-08-26T14:21:33.692Z,70.69
2022-08-26T14:24:01.999Z,70.79
2022-08-26T14:26:30.697Z,71.20
2022-08-26T14:29:02.516Z,71.09
2022-08-26T14:31:33.478Z,71.07
2022-08-26T14:34:05.935Z,71.26
2022-08-26T14:36:35.588Z,71.85
2022-08-26T14:39:07.841Z,71.72
2022-08-26T14:41:40.089Z,72.03
2022-08-26T14:44:14.601Z,71.94
2022-08-26T14:46:49.601Z,71.97
2022-08-26T14:49:19.712Z,71.86
2022-08-26T14:51:48.242Z,71.83
2022-08-26T14:54:19.922Z,72.36
2022-08-26T14:56:52.284Z,72.23
2022-08-26T14:59:25.221Z,72.20
2022-08-26T15:01:54.353Z,72.00
2022-08-26T15:04:24.770Z,72.05
2022-08-26T15:06:54.304Z,72.07
2022-08-26T15:09:23.965Z,72.00
2022-08-26T15:11:53.117Z,71.99
2022-08-26T15:14:24.175Z,71.96
2022-08-26T15:16:55.849Z,71.74
2022-08-26T15:19:27.191Z,71.51
2022-08-26T15:21:55.597Z,71.62
2022-08-26T15:24:28.783Z,71.52
2022-08-26T15:26:57.239Z,71.38
2022-08-26T15:29:26.996Z,71.31
2022-08-26T15:31:57.643Z,70.77
2022-08-26T15:34:26.415Z,71.08
2022-08-26T15:36:55.193Z,70.63
2022-08-26T15:39:23.580Z,71.10
2022-08-26T15:41:52.103Z,70.72
2022-08-26T15:44:20.706Z,70.91
2022-08-26T15:46:55.351Z,70.65
2022-08-26T15:49:26.186Z,70.65
2022-08-26T15:51:55.096Z,70.47
2022-08-26T15:54:25.141Z,70.52
2022-08-26T15:56:53.873Z,70.54
2022-08-26T15:59:23.267Z,70.25
2022-08-26T16:01:53.436Z,70.34
2022-08-26T16:04:22.254Z,70.60
2022-08-26T16:06:52.187Z,70.55
2022-08-26T16:09:24.335Z,70.55
2022-08-26T16:11:53.025Z,71.16
2022-08-26T16:14:21.670Z,71.54
2022-08-26T16:16:50.555Z,71.79
2022-08-26T16:19:21.097Z,71.85
2022-08-26T16:21:50.800Z,72.23
2022-08-26T16:24:24.806Z,72.45
2022-08-26T16:26:55.876Z,72.72
2022-08-26T16:29:24.630Z,73.17
2022-08-26T16:31:53.842Z,73.28
2022-08-26T16:34:23.719Z,73.61
2022-08-26T16:36:52.780Z,73.74
2022-08-26T16:39:21.194Z,74.02
2022-08-26T16:41:49.601Z,74.29
2022-08-26T16:44:17.941Z,74.77
2022-08-26T16:46:46.627Z,74.71
2022-08-26T16:49:15.272Z,74.88
2022-08-26T16:51:45.144Z,74.96
2022-08-26T16:54:13.520Z,75.03
2022-08-26T16:56:41.838Z,75.04
2022-08-26T16:59:11.748Z,75.13
2022-08-26T17:01:40.301Z,75.37
2022-08-26T17:04:08.695Z,75.35
2022-08-26T17:06:37.233Z,75.37
2022-08-26T17:09:07.546Z,75.36
2022-08-26T17:11:36.200Z,75.68
2022-08-26T17:14:05.300Z,75.36
2022-08-26T17:16:33.827Z,75.75
2022-08-26T17:19:04.462Z,75.69
2022-08-26T17:21:35.141Z,75.91
2022-08-26T17:24:04.881Z,75.65
2022-08-26T17:26:34.859Z,75.64
2022-08-26T17:29:03.141Z,75.99
2022-08-26T17:31:32.536Z,75.99
2022-08-26T17:34:00.885Z,75.96
2022-08-26T17:36:29.424Z,76.38
2022-08-26T17:38:59.057Z,76.40
2022-08-26T17:41:28.574Z,76.40
2022-08-26T17:43:58.231Z,76.42
2022-08-26T17:46:26.995Z,76.49
2022-08-26T17:48:55.423Z,76.88
2022-08-26T17:51:24.364Z,76.97
2022-08-26T17:53:53.255Z,77.15
2022-08-26T17:56:28.659Z,76.99
2022-08-26T17:59:02.519Z,77.36
2022-08-26T18:01:32.989Z,77.30
2022-08-26T18:04:01.595Z,77.47
2022-08-26T18:06:31.317Z,77.75
2022-08-26T18:09:00.812Z,77.91
2022-08-26T18:11:29.668Z,77.96
2022-08-26T18:13:59.900Z,78.05
2022-08-26T18:16:31.885Z,78.35
2022-08-26T18:19:00.885Z,78.57
2022-08-26T18:21:29.489Z,78.44
2022-08-26T18:23:58.146Z,78.42
2022-08-26T18:26:29.469Z,78.38
2022-08-26T18:28:59.763Z,78.36
2022-08-26T18:31:28.679Z,78.35
2022-08-26T18:33:57.049Z,78.34
2022-08-26T18:36:28.961Z,78.39
2022-08-26T18:38:58.251Z,78.44
2022-08-26T18:41:29.561Z,78.40
2022-08-26T18:43:59.822Z,78.35
2022-08-26T18:46:29.286Z,78.17
2022-08-26T18:48:58.693Z,78.40
2022-08-26T18:51:30.223Z,78.57
2022-08-26T18:53:59.692Z,78.48
2022-08-26T18:56:28.721Z,78.69
2022-08-26T18:58:58.958Z,78.77
2022-08-26T19:01:28.531Z,78.93
2022-08-26T19:03:57.834Z,79.03
2022-08-26T19:06:28.233Z,79.24
2022-08-26T19:08:58.178Z,79.06
2022-08-26T19:11:31.308Z,79.10
2022-08-26T19:14:03.438Z,79.23
2022-08-26T19:16:32.152Z,79.20
2022-08-26T19:19:01.378Z,79.20
2022-08-26T19:21:30.552Z,79.27
2022-08-26T19:24:00.977Z,79.63
2022-08-26T19:26:30.553Z,79.46
2022-08-26T19:28:59.920Z,79.76
2022-08-26T19:31:29.776Z,79.77
2022-08-26T19:33:59.517Z,79.95
2022-08-26T19:36:29.261Z,80.02
2022-08-26T19:38:58.397Z,80.20
2022-08-26T19:41:37.193Z,80.29
2022-08-26T19:44:10.155Z,80.43
2022-08-26T19:46:40.161Z,80.46
2022-08-26T19:49:08.596Z,80.36
2022-08-26T19:51:37.473Z,80.49
2022-08-26T19:54:06.458Z,80.50
2022-08-26T19:56:34.938Z,80.60
2022-08-26T19:59:03.924Z,80.73
2022-08-26T20:01:32.315Z,80.81
2022-08-26T20:04:02.018Z,81.05
2022-08-26T20:06:30.314Z,81.18
2022-08-26T20:08:59.100Z,81.28
2022-08-26T20:11:28.017Z,81.40
2022-08-26T20:13:57.132Z,81.46
2022-08-26T20:16:25.485Z,81.62
2022-08-26T20:19:11.323Z,81.53
2022-08-26T20:21:43.050Z,81.61
2022-08-26T20:24:14.930Z,81.58
2022-08-26T20:26:45.441Z,81.75
2022-08-26T20:29:16.916Z,81.84
2022-08-26T20:31:45.690Z,81.86
2022-08-26T20:34:16.528Z,82.17
2022-08-26T20:36:48.318Z,82.11
2022-08-26T20:39:18.667Z,82.30
2022-08-26T20:41:47.000Z,82.35
2022-08-26T20:44:16.727Z,82.43
2022-08-26T20:46:45.572Z,82.56
2022-08-26T20:49:14.864Z,82.62
2022-08-26T20:51:48.980Z,82.63
2022-08-26T20:54:19.477Z,82.83
2022-08-26T20:56:47.945Z,82.80
2022-08-26T20:59:17.063Z,82.81
2022-08-26T21:01:45.629Z,82.85
2022-08-26T21:04:18.719Z,83.01
2022-08-26T21:06:52.832Z,82.91
2022-08-26T21:09:22.968Z,83.06
2022-08-26T21:11:52.465Z,83.21
2022-08-26T21:14:23.237Z,83.30
2022-08-26T21:16:54.644Z,83.52
2022-08-26T21:19:23.394Z,83.54
2022-08-26T21:21:53.152Z,83.37
2022-08-26T21:24:21.562Z,83.71
2022-08-26T21:26:49.933Z,83.69
2022-08-26T21:29:18.302Z,83.88
2022-08-26T21:31:47.066Z,84.00
2022-08-26T21:34:17.085Z,84.05
2022-08-26T21:36:45.723Z,84.05
2022-08-26T21:39:16.419Z,84.17
2022-08-26T21:41:45.756Z,84.40
2022-08-26T21:44:16.203Z,84.53
2022-08-26T21:46:46.230Z,84.47
2022-08-26T21:49:16.803Z,84.48
2022-08-26T21:51:48.337Z,84.58
2022-08-26T21:54:19.467Z,84.68
2022-08-26T21:56:49.228Z,84.78
2022-08-26T21:59:20.010Z,84.78
2022-08-26T22:01:48.851Z,84.82
2022-08-26T22:04:18.631Z,84.96
2022-08-26T22:06:52.002Z,85.00
2022-08-26T22:09:25.898Z,85.16
2022-08-26T22:11:56.899Z,85.20
2022-08-26T22:14:30.629Z,85.14
2022-08-26T22:17:00.321Z,85.27
2022-08-26T22:19:29.875Z,85.37
2022-08-26T22:21:59.476Z,85.57
2022-08-26T22:24:29.442Z,85.60
2022-08-26T22:26:58.058Z,85.82
2022-08-26T22:29:27.188Z,85.71
2022-08-26T22:31:55.648Z,85.67
2022-08-26T22:34:24.042Z,85.83
2022-08-26T22:36:52.802Z,85.91
2022-08-26T22:39:25.327Z,86.07
2022-08-26T22:41:56.858Z,85.92
2022-08-26T22:44:25.636Z,85.91
2022-08-26T22:46:55.530Z,85.99
2022-08-26T22:49:24.975Z,85.94
2022-08-26T22:51:53.269Z,85.97
2022-08-26T22:54:21.835Z,86.00
2022-08-26T22:56:50.188Z,86.09
2022-08-26T22:59:19.940Z,86.07
2022-08-26T23:01:48.338Z,86.19
2022-08-26T23:04:16.846Z,86.23
2022-08-26T23:06:47.841Z,86.23
2022-08-26T23:09:18.408Z,86.40
2022-08-26T23:11:48.434Z,86.25
2022-08-26T23:14:18.068Z,86.41
2022-08-26T23:16:48.428Z,86.59
2022-08-26T23:19:22.778Z,86.43
2022-08-26T23:21:51.859Z,86.75
2022-08-26T23:24:20.563Z,86.65
2022-08-26T23:26:49.867Z,86.76
2022-08-26T23:29:18.478Z,86.77
2022-08-26T23:31:48.369Z,86.85
2022-08-26T23:34:34.139Z,86.96
2022-08-26T23:37:06.255Z,86.92
2022-08-26T23:39:37.228Z,86.82
2022-08-26T23:42:06.608Z,86.92
2022-08-26T23:44:35.433Z,87.15
2022-08-26T23:47:06.207Z,87.28
2022-08-26T23:49:35.064Z,87.21
2022-08-26T23:52:21.075Z,87.32
2022-08-26T23:54:49.419Z,87.25
2022-08-26T23:57:19.521Z,87.32
2022-08-26T23:59:49.046Z,87.40
